sensor_id;sensor_type;location;lat;lon;timestamp;P1;durP1;ratioP1;P2;durP2;ratioP2
36301;SDS011;22334;53.022;18.606;2023-02-12T00:01:25;9.43;;;3.17;;
36301;SDS011;22334;53.022;18.606;2023-02-12T00:03:52;7.60;;;2.70;;
36301;SDS011;22334;53.022;18.606;2023-02-12T00:09:40;6.90;;;2.87;;
36301;SDS011;22334;53.022;18.606;2023-02-12T00:12:05;6.07;;;2.50;;
36301;SDS011;22334;53.022;18.606;2023-02-12T00:14:41;7.78;;;2.58;;
36301;SDS011;22334;53.022;18.606;2023-02-12T00:17:06;10.93;;;2.80;;
36301;SDS011;22334;53.022;18.606;2023-02-12T00:19:32;12.45;;;3.83;;
36301;SDS011;22334;53.022;18.606;2023-02-12T00:21:59;19.57;;;5.27;;
36301;SDS011;22334;53.022;18.606;2023-02-12T00:24:24;16.40;;;4.40;;
36301;SDS011;22334;53.022;18.606;2023-02-12T00:26:56;13.27;;;4.60;;
36301;SDS011;22334;53.022;18.606;2023-02-12T00:29:21;9.77;;;3.65;;
36301;SDS011;22334;53.022;18.606;2023-02-12T00:31:46;10.77;;;3.73;;
36301;SDS011;22334;53.022;18.606;2023-02-12T00:34:27;10.33;;;3.20;;
36301;SDS011;22334;53.022;18.606;2023-02-12T00:37:07;11.30;;;3.17;;
36301;SDS011;22334;53.022;18.606;2023-02-12T00:39:34;8.17;;;3.20;;
36301;SDS011;22334;53.022;18.606;2023-02-12T00:42:02;14.50;;;3.80;;
36301;SDS011;22334;53.022;18.606;2023-02-12T00:44:28;12.70;;;3.27;;
36301;SDS011;22334;53.022;18.606;2023-02-12T00:46:54;7.55;;;1.83;;
36301;SDS011;22334;53.022;18.606;2023-02-12T00:49:19;7.47;;;2.60;;
36301;SDS011;22334;53.022;18.606;2023-02-12T00:51:45;10.23;;;3.33;;
36301;SDS011;22334;53.022;18.606;2023-02-12T00:54:10;12.67;;;4.50;;
36301;SDS011;22334;53.022;18.606;2023-02-12T00:56:36;14.40;;;4.97;;
36301;SDS011;22334;53.022;18.606;2023-02-12T00:59:02;12.23;;;4.00;;
36301;SDS011;22334;53.022;18.606;2023-02-12T01:01:27;8.20;;;3.30;;
36301;SDS011;22334;53.022;18.606;2023-02-12T01:03:53;8.67;;;3.40;;
36301;SDS011;22334;53.022;18.606;2023-02-12T01:06:19;8.50;;;2.83;;
36301;SDS011;22334;53.022;18.606;2023-02-12T01:11:42;13.33;;;4.80;;
36301;SDS011;22334;53.022;18.606;2023-02-12T01:14:08;15.40;;;4.57;;
36301;SDS011;22334;53.022;18.606;2023-02-12T01:16:34;15.37;;;4.40;;
36301;SDS011;22334;53.022;18.606;2023-02-12T01:19:00;20.25;;;4.82;;
36301;SDS011;22334;53.022;18.606;2023-02-12T01:21:27;10.63;;;3.33;;
36301;SDS011;22334;53.022;18.606;2023-02-12T01:23:55;6.93;;;2.63;;
36301;SDS011;22334;53.022;18.606;2023-02-12T01:26:31;9.70;;;2.90;;
36301;SDS011;22334;53.022;18.606;2023-02-12T01:28:58;8.33;;;2.50;;
36301;SDS011;22334;53.022;18.606;2023-02-12T01:31:27;12.00;;;2.80;;
36301;SDS011;22334;53.022;18.606;2023-02-12T01:33:59;6.60;;;1.93;;
36301;SDS011;22334;53.022;18.606;2023-02-12T01:36:27;6.70;;;1.70;;
36301;SDS011;22334;53.022;18.606;2023-02-12T01:38:54;6.73;;;2.00;;
36301;SDS011;22334;53.022;18.606;2023-02-12T01:41:21;5.40;;;2.00;;
36301;SDS011;22334;53.022;18.606;2023-02-12T01:44:23;12.02;;;2.70;;
36301;SDS011;22334;53.022;18.606;2023-02-12T01:46:42;8.67;;;2.10;;
36301;SDS011;22334;53.022;18.606;2023-02-12T01:49:16;13.17;;;3.00;;
36301;SDS011;22334;53.022;18.606;2023-02-12T01:51:44;22.40;;;4.80;;
36301;SDS011;22334;53.022;18.606;2023-02-12T01:54:11;16.17;;;4.30;;
36301;SDS011;22334;53.022;18.606;2023-02-12T01:56:38;19.70;;;5.60;;
36301;SDS011;22334;53.022;18.606;2023-02-12T01:59:04;24.83;;;7.23;;
36301;SDS011;22334;53.022;18.606;2023-02-12T02:01:30;17.03;;;5.57;;
36301;SDS011;22334;53.022;18.606;2023-02-12T02:03:58;15.70;;;6.10;;
36301;SDS011;22334;53.022;18.606;2023-02-12T02:06:31;16.17;;;5.97;;
36301;SDS011;22334;53.022;18.606;2023-02-12T02:08:59;16.53;;;5.73;;
36301;SDS011;22334;53.022;18.606;2023-02-12T02:11:26;14.83;;;5.97;;
36301;SDS011;22334;53.022;18.606;2023-02-12T02:14:10;12.47;;;5.77;;
36301;SDS011;22334;53.022;18.606;2023-02-12T02:16:56;12.83;;;4.80;;
36301;SDS011;22334;53.022;18.606;2023-02-12T02:22:18;12.50;;;4.60;;
36301;SDS011;22334;53.022;18.606;2023-02-12T02:44:35;8.93;;;2.40;;
36301;SDS011;22334;53.022;18.606;2023-02-12T02:47:06;6.73;;;2.40;;
36301;SDS011;22334;53.022;18.606;2023-02-12T02:52:51;5.70;;;2.50;;
36301;SDS011;22334;53.022;18.606;2023-02-12T02:55:19;7.37;;;2.40;;
36301;SDS011;22334;53.022;18.606;2023-02-12T02:57:53;5.83;;;2.00;;
36301;SDS011;22334;53.022;18.606;2023-02-12T03:00:23;5.23;;;1.90;;
36301;SDS011;22334;53.022;18.606;2023-02-12T03:03:00;4.63;;;2.07;;
36301;SDS011;22334;53.022;18.606;2023-02-12T03:05:39;5.97;;;2.00;;
36301;SDS011;22334;53.022;18.606;2023-02-12T03:08:14;4.20;;;1.73;;
36301;SDS011;22334;53.022;18.606;2023-02-12T03:10:51;4.93;;;2.13;;
36301;SDS011;22334;53.022;18.606;2023-02-12T03:13:27;6.67;;;1.80;;
36301;SDS011;22334;53.022;18.606;2023-02-12T03:16:04;5.03;;;1.80;;
36301;SDS011;22334;53.022;18.606;2023-02-12T03:18:45;3.90;;;1.57;;
36301;SDS011;22334;53.022;18.606;2023-02-12T03:21:17;4.70;;;1.60;;
36301;SDS011;22334;53.022;18.606;2023-02-12T03:23:51;3.13;;;1.50;;
36301;SDS011;22334;53.022;18.606;2023-02-12T03:26:30;4.70;;;1.40;;
36301;SDS011;22334;53.022;18.606;2023-02-12T03:29:02;3.70;;;1.23;;
36301;SDS011;22334;53.022;18.606;2023-02-12T03:37:12;4.87;;;2.10;;
36301;SDS011;22334;53.022;18.606;2023-02-12T03:44:56;15.77;;;6.07;;
36301;SDS011;22334;53.022;18.606;2023-02-12T03:47:37;16.20;;;6.10;;
36301;SDS011;22334;53.022;18.606;2023-02-12T03:50:19;7.37;;;2.87;;
36301;SDS011;22334;53.022;18.606;2023-02-12T03:52:48;10.10;;;3.60;;
36301;SDS011;22334;53.022;18.606;2023-02-12T03:55:15;7.57;;;2.20;;
36301;SDS011;22334;53.022;18.606;2023-02-12T03:57:46;13.43;;;3.73;;
36301;SDS011;22334;53.022;18.606;2023-02-12T04:00:16;6.60;;;2.00;;
36301;SDS011;22334;53.022;18.606;2023-02-12T04:02:43;7.57;;;2.80;;
36301;SDS011;22334;53.022;18.606;2023-02-12T04:05:23;7.47;;;2.47;;
36301;SDS011;22334;53.022;18.606;2023-02-12T04:07:51;6.13;;;2.43;;
36301;SDS011;22334;53.022;18.606;2023-02-12T04:10:30;6.13;;;2.30;;
36301;SDS011;22334;53.022;18.606;2023-02-12T04:13:25;7.80;;;2.37;;
36301;SDS011;22334;53.022;18.606;2023-02-12T04:15:56;5.03;;;1.80;;
36301;SDS011;22334;53.022;18.606;2023-02-12T04:18:28;5.73;;;2.47;;
36301;SDS011;22334;53.022;18.606;2023-02-12T04:21:05;11.87;;;3.30;;
36301;SDS011;22334;53.022;18.606;2023-02-12T04:23:43;7.13;;;3.00;;
36301;SDS011;22334;53.022;18.606;2023-02-12T04:26:56;8.83;;;2.87;;
36301;SDS011;22334;53.022;18.606;2023-02-12T04:29:50;5.07;;;2.50;;
36301;SDS011;22334;53.022;18.606;2023-02-12T04:32:23;6.50;;;3.60;;
36301;SDS011;22334;53.022;18.606;2023-02-12T04:37:56;9.43;;;3.30;;
36301;SDS011;22334;53.022;18.606;2023-02-12T04:40:37;6.85;;;2.78;;
36301;SDS011;22334;53.022;18.606;2023-02-12T04:43:08;7.27;;;3.43;;
36301;SDS011;22334;53.022;18.606;2023-02-12T04:45:36;7.23;;;2.60;;
36301;SDS011;22334;53.022;18.606;2023-02-12T04:48:03;6.97;;;2.57;;
36301;SDS011;22334;53.022;18.606;2023-02-12T04:50:40;10.37;;;2.83;;
36301;SDS011;22334;53.022;18.606;2023-02-12T04:53:07;8.57;;;3.00;;
36301;SDS011;22334;53.022;18.606;2023-02-12T04:55:33;7.80;;;3.17;;
36301;SDS011;22334;53.022;18.606;2023-02-12T04:57:59;7.97;;;2.70;;
36301;SDS011;22334;53.022;18.606;2023-02-12T05:00:25;8.17;;;2.53;;
36301;SDS011;22334;53.022;18.606;2023-02-12T05:02:50;10.70;;;3.13;;
36301;SDS011;22334;53.022;18.606;2023-02-12T05:05:16;12.03;;;3.07;;
36301;SDS011;22334;53.022;18.606;2023-02-12T05:07:41;9.43;;;2.80;;
36301;SDS011;22334;53.022;18.606;2023-02-12T05:10:07;9.73;;;3.00;;
36301;SDS011;22334;53.022;18.606;2023-02-12T05:12:38;9.67;;;3.43;;
36301;SDS011;22334;53.022;18.606;2023-02-12T05:15:04;9.53;;;3.27;;
36301;SDS011;22334;53.022;18.606;2023-02-12T05:17:29;9.80;;;3.43;;
36301;SDS011;22334;53.022;18.606;2023-02-12T05:19:55;10.60;;;3.80;;
36301;SDS011;22334;53.022;18.606;2023-02-12T05:22:21;15.63;;;7.17;;
36301;SDS011;22334;53.022;18.606;2023-02-12T05:24:47;12.70;;;5.20;;
36301;SDS011;22334;53.022;18.606;2023-02-12T05:30:03;14.53;;;8.43;;
36301;SDS011;22334;53.022;18.606;2023-02-12T05:32:30;20.70;;;8.60;;
36301;SDS011;22334;53.022;18.606;2023-02-12T05:35:05;24.17;;;12.30;;
36301;SDS011;22334;53.022;18.606;2023-02-12T05:37:33;20.27;;;10.70;;
36301;SDS011;22334;53.022;18.606;2023-02-12T05:40:02;18.52;;;9.35;;
36301;SDS011;22334;53.022;18.606;2023-02-12T05:42:29;17.67;;;6.03;;
36301;SDS011;22334;53.022;18.606;2023-02-12T05:45:09;14.50;;;5.80;;
36301;SDS011;22334;53.022;18.606;2023-02-12T05:47:35;15.20;;;5.77;;
36301;SDS011;22334;53.022;18.606;2023-02-12T05:50:01;10.73;;;5.33;;
36301;SDS011;22334;53.022;18.606;2023-02-12T05:52:26;13.73;;;5.97;;
36301;SDS011;22334;53.022;18.606;2023-02-12T05:54:52;13.10;;;5.77;;
36301;SDS011;22334;53.022;18.606;2023-02-12T05:57:17;11.50;;;5.70;;
36301;SDS011;22334;53.022;18.606;2023-02-12T05:59:42;13.50;;;6.60;;
36301;SDS011;22334;53.022;18.606;2023-02-12T06:02:08;16.47;;;7.70;;
36301;SDS011;22334;53.022;18.606;2023-02-12T06:04:34;18.60;;;6.87;;
36301;SDS011;22334;53.022;18.606;2023-02-12T06:07:00;23.93;;;9.37;;
36301;SDS011;22334;53.022;18.606;2023-02-12T06:09:26;22.00;;;7.73;;
36301;SDS011;22334;53.022;18.606;2023-02-12T06:12:07;22.67;;;9.50;;
36301;SDS011;22334;53.022;18.606;2023-02-12T06:14:33;23.60;;;8.97;;
36301;SDS011;22334;53.022;18.606;2023-02-12T06:16:58;37.87;;;13.60;;
36301;SDS011;22334;53.022;18.606;2023-02-12T06:22:30;37.47;;;12.47;;
36301;SDS011;22334;53.022;18.606;2023-02-12T06:24:55;63.23;;;17.23;;
36301;SDS011;22334;53.022;18.606;2023-02-12T06:27:20;55.57;;;16.17;;
36301;SDS011;22334;53.022;18.606;2023-02-12T06:29:46;52.17;;;15.73;;
36301;SDS011;22334;53.022;18.606;2023-02-12T06:32:12;36.60;;;11.83;;
36301;SDS011;22334;53.022;18.606;2023-02-12T06:34:40;34.53;;;14.67;;
36301;SDS011;22334;53.022;18.606;2023-02-12T06:37:06;49.10;;;19.17;;
36301;SDS011;22334;53.022;18.606;2023-02-12T06:39:32;62.33;;;25.77;;
36301;SDS011;22334;53.022;18.606;2023-02-12T06:41:58;70.13;;;33.40;;
36301;SDS011;22334;53.022;18.606;2023-02-12T06:44:24;55.97;;;27.00;;
36301;SDS011;22334;53.022;18.606;2023-02-12T06:46:49;46.70;;;23.30;;
36301;SDS011;22334;53.022;18.606;2023-02-12T06:49:15;40.33;;;18.73;;
36301;SDS011;22334;53.022;18.606;2023-02-12T06:51:41;28.30;;;12.97;;
36301;SDS011;22334;53.022;18.606;2023-02-12T06:54:14;26.43;;;12.80;;
36301;SDS011;22334;53.022;18.606;2023-02-12T06:56:41;24.40;;;10.27;;
36301;SDS011;22334;53.022;18.606;2023-02-12T06:59:09;25.43;;;10.40;;
36301;SDS011;22334;53.022;18.606;2023-02-12T07:01:38;25.17;;;10.80;;
36301;SDS011;22334;53.022;18.606;2023-02-12T07:04:04;24.67;;;10.40;;
36301;SDS011;22334;53.022;18.606;2023-02-12T07:06:31;19.47;;;9.47;;
36301;SDS011;22334;53.022;18.606;2023-02-12T07:08:59;34.30;;;16.50;;
36301;SDS011;22334;53.022;18.606;2023-02-12T07:11:25;27.60;;;12.83;;
36301;SDS011;22334;53.022;18.606;2023-02-12T07:13:55;33.80;;;17.10;;
36301;SDS011;22334;53.022;18.606;2023-02-12T07:16:24;54.30;;;28.03;;
36301;SDS011;22334;53.022;18.606;2023-02-12T07:18:51;44.87;;;24.57;;
36301;SDS011;22334;53.022;18.606;2023-02-12T07:21:17;34.10;;;16.10;;
36301;SDS011;22334;53.022;18.606;2023-02-12T07:23:46;36.53;;;17.00;;
36301;SDS011;22334;53.022;18.606;2023-02-12T07:26:14;46.60;;;22.77;;
36301;SDS011;22334;53.022;18.606;2023-02-12T07:28:40;68.33;;;30.57;;
36301;SDS011;22334;53.022;18.606;2023-02-12T07:31:10;63.53;;;31.10;;
36301;SDS011;22334;53.022;18.606;2023-02-12T07:33:39;49.70;;;22.93;;
36301;SDS011;22334;53.022;18.606;2023-02-12T07:36:07;41.53;;;18.80;;
36301;SDS011;22334;53.022;18.606;2023-02-12T07:38:35;64.30;;;31.60;;
36301;SDS011;22334;53.022;18.606;2023-02-12T07:43:40;72.73;;;35.10;;
36301;SDS011;22334;53.022;18.606;2023-02-12T07:48:49;73.60;;;36.47;;
36301;SDS011;22334;53.022;18.606;2023-02-12T07:51:16;55.53;;;29.67;;
36301;SDS011;22334;53.022;18.606;2023-02-12T07:53:45;47.30;;;23.80;;
36301;SDS011;22334;53.022;18.606;2023-02-12T07:56:11;39.15;;;20.92;;
36301;SDS011;22334;53.022;18.606;2023-02-12T07:58:38;32.97;;;19.60;;
36301;SDS011;22334;53.022;18.606;2023-02-12T08:01:21;19.85;;;11.10;;
36301;SDS011;22334;53.022;18.606;2023-02-12T08:03:52;17.83;;;9.07;;
36301;SDS011;22334;53.022;18.606;2023-02-12T08:06:22;18.98;;;10.70;;
36301;SDS011;22334;53.022;18.606;2023-02-12T08:08:50;25.08;;;12.68;;
36301;SDS011;22334;53.022;18.606;2023-02-12T08:11:16;23.15;;;12.95;;
36301;SDS011;22334;53.022;18.606;2023-02-12T08:13:43;27.95;;;13.77;;
36301;SDS011;22334;53.022;18.606;2023-02-12T08:16:10;28.88;;;13.70;;
36301;SDS011;22334;53.022;18.606;2023-02-12T08:18:37;27.67;;;13.10;;
36301;SDS011;22334;53.022;18.606;2023-02-12T08:21:03;28.00;;;14.45;;
36301;SDS011;22334;53.022;18.606;2023-02-12T08:23:30;28.58;;;13.80;;
36301;SDS011;22334;53.022;18.606;2023-02-12T08:26:06;25.55;;;13.43;;
36301;SDS011;22334;53.022;18.606;2023-02-12T08:28:44;26.15;;;12.05;;
36301;SDS011;22334;53.022;18.606;2023-02-12T08:31:23;20.75;;;8.93;;
36301;SDS011;22334;53.022;18.606;2023-02-12T08:33:49;17.95;;;9.07;;
36301;SDS011;22334;53.022;18.606;2023-02-12T08:36:17;22.98;;;9.98;;
36301;SDS011;22334;53.022;18.606;2023-02-12T08:38:44;21.25;;;9.20;;
36301;SDS011;22334;53.022;18.606;2023-02-12T08:41:17;19.25;;;8.90;;
36301;SDS011;22334;53.022;18.606;2023-02-12T08:43:49;19.38;;;10.50;;
36301;SDS011;22334;53.022;18.606;2023-02-12T08:46:52;18.20;;;7.35;;
36301;SDS011;22334;53.022;18.606;2023-02-12T08:49:24;19.88;;;9.00;;
36301;SDS011;22334;53.022;18.606;2023-02-12T08:51:51;29.15;;;17.25;;
36301;SDS011;22334;53.022;18.606;2023-02-12T08:54:19;42.22;;;21.23;;
36301;SDS011;22334;53.022;18.606;2023-02-12T08:56:46;301.73;;;128.02;;
36301;SDS011;22334;53.022;18.606;2023-02-12T08:59:12;132.45;;;55.25;;
36301;SDS011;22334;53.022;18.606;2023-02-12T09:01:39;71.50;;;32.80;;
36301;SDS011;22334;53.022;18.606;2023-02-12T09:04:05;40.40;;;24.02;;
36301;SDS011;22334;53.022;18.606;2023-02-12T09:06:33;17.00;;;8.40;;
36301;SDS011;22334;53.022;18.606;2023-02-12T09:09:00;20.02;;;8.77;;
36301;SDS011;22334;53.022;18.606;2023-02-12T09:11:27;34.35;;;14.05;;
36301;SDS011;22334;53.022;18.606;2023-02-12T09:13:55;22.33;;;8.90;;
36301;SDS011;22334;53.022;18.606;2023-02-12T09:16:26;27.92;;;11.68;;
36301;SDS011;22334;53.022;18.606;2023-02-12T09:18:52;17.13;;;8.82;;
36301;SDS011;22334;53.022;18.606;2023-02-12T09:21:17;10.23;;;5.28;;
36301;SDS011;22334;53.022;18.606;2023-02-12T09:23:43;8.75;;;5.38;;
36301;SDS011;22334;53.022;18.606;2023-02-12T09:26:10;11.60;;;5.95;;
36301;SDS011;22334;53.022;18.606;2023-02-12T09:28:37;22.52;;;12.20;;
36301;SDS011;22334;53.022;18.606;2023-02-12T09:31:04;15.35;;;8.88;;
36301;SDS011;22334;53.022;18.606;2023-02-12T09:33:34;10.63;;;4.15;;
36301;SDS011;22334;53.022;18.606;2023-02-12T09:36:02;9.45;;;6.97;;
36301;SDS011;22334;53.022;18.606;2023-02-12T09:38:30;29.75;;;17.40;;
36301;SDS011;22334;53.022;18.606;2023-02-12T09:43:51;43.42;;;30.65;;
36301;SDS011;22334;53.022;18.606;2023-02-12T09:46:38;11.32;;;4.90;;
36301;SDS011;22334;53.022;18.606;2023-02-12T09:51:52;20.13;;;10.80;;
36301;SDS011;22334;53.022;18.606;2023-02-12T09:54:21;14.02;;;6.05;;
36301;SDS011;22334;53.022;18.606;2023-02-12T09:56:50;19.23;;;7.57;;
36301;SDS011;22334;53.022;18.606;2023-02-12T09:59:30;16.02;;;6.10;;
36301;SDS011;22334;53.022;18.606;2023-02-12T10:02:05;12.05;;;5.57;;
36301;SDS011;22334;53.022;18.606;2023-02-12T10:04:35;12.13;;;5.88;;
36301;SDS011;22334;53.022;18.606;2023-02-12T10:07:26;12.00;;;5.10;;
36301;SDS011;22334;53.022;18.606;2023-02-12T10:13:16;11.57;;;5.28;;
36301;SDS011;22334;53.022;18.606;2023-02-12T10:28:49;13.55;;;6.10;;
36301;SDS011;22334;53.022;18.606;2023-02-12T10:31:35;16.45;;;7.78;;
36301;SDS011;22334;53.022;18.606;2023-02-12T10:34:17;19.83;;;8.02;;
36301;SDS011;22334;53.022;18.606;2023-02-12T10:40:05;14.55;;;7.47;;
36301;SDS011;22334;53.022;18.606;2023-02-12T10:43:12;26.40;;;11.48;;
36301;SDS011;22334;53.022;18.606;2023-02-12T10:46:00;26.65;;;12.77;;
36301;SDS011;22334;53.022;18.606;2023-02-12T10:48:30;23.83;;;10.88;;
36301;SDS011;22334;53.022;18.606;2023-02-12T10:53:42;17.88;;;9.18;;
36301;SDS011;22334;53.022;18.606;2023-02-12T10:56:19;21.73;;;10.68;;
36301;SDS011;22334;53.022;18.606;2023-02-12T11:04:26;22.85;;;12.68;;
36301;SDS011;22334;53.022;18.606;2023-02-12T11:06:58;19.65;;;10.40;;
36301;SDS011;22334;53.022;18.606;2023-02-12T11:09:34;28.75;;;13.18;;
36301;SDS011;22334;53.022;18.606;2023-02-12T11:12:28;26.65;;;13.82;;
36301;SDS011;22334;53.022;18.606;2023-02-12T11:15:13;26.35;;;13.63;;
36301;SDS011;22334;53.022;18.606;2023-02-12T11:17:59;19.77;;;11.35;;
36301;SDS011;22334;53.022;18.606;2023-02-12T11:21:08;22.95;;;11.27;;
36301;SDS011;22334;53.022;18.606;2023-02-12T11:23:44;19.40;;;10.52;;
36301;SDS011;22334;53.022;18.606;2023-02-12T11:26:26;16.20;;;10.02;;
36301;SDS011;22334;53.022;18.606;2023-02-12T11:29:18;20.33;;;10.25;;
36301;SDS011;22334;53.022;18.606;2023-02-12T11:32:03;19.27;;;10.43;;
36301;SDS011;22334;53.022;18.606;2023-02-12T11:34:38;23.77;;;11.80;;
36301;SDS011;22334;53.022;18.606;2023-02-12T11:37:06;19.35;;;11.00;;
36301;SDS011;22334;53.022;18.606;2023-02-12T11:40:05;36.67;;;18.58;;
36301;SDS011;22334;53.022;18.606;2023-02-12T11:42:34;34.92;;;17.27;;
36301;SDS011;22334;53.022;18.606;2023-02-12T11:45:05;37.70;;;17.55;;
36301;SDS011;22334;53.022;18.606;2023-02-12T11:47:42;25.38;;;14.73;;
36301;SDS011;22334;53.022;18.606;2023-02-12T11:52:59;24.08;;;13.32;;
36301;SDS011;22334;53.022;18.606;2023-02-12T11:55:33;30.20;;;16.67;;
36301;SDS011;22334;53.022;18.606;2023-02-12T11:58:19;26.85;;;14.90;;
36301;SDS011;22334;53.022;18.606;2023-02-12T12:03:43;33.90;;;16.67;;
36301;SDS011;22334;53.022;18.606;2023-02-12T12:14:14;34.00;;;17.00;;
36301;SDS011;22334;53.022;18.606;2023-02-12T12:17:21;37.40;;;18.23;;
36301;SDS011;22334;53.022;18.606;2023-02-12T12:20:21;28.45;;;14.90;;
36301;SDS011;22334;53.022;18.606;2023-02-12T12:23:23;27.02;;;14.98;;
36301;SDS011;22334;53.022;18.606;2023-02-12T12:26:07;41.05;;;19.65;;
36301;SDS011;22334;53.022;18.606;2023-02-12T12:31:53;22.55;;;13.23;;
36301;SDS011;22334;53.022;18.606;2023-02-12T12:34:35;30.63;;;15.20;;
36301;SDS011;22334;53.022;18.606;2023-02-12T13:05:00;27.38;;;13.05;;
36301;SDS011;22334;53.022;18.606;2023-02-12T13:08:05;27.30;;;12.60;;
36301;SDS011;22334;53.022;18.606;2023-02-12T13:13:45;27.30;;;10.95;;
36301;SDS011;22334;53.022;18.606;2023-02-12T13:16:41;25.15;;;11.70;;
36301;SDS011;22334;53.022;18.606;2023-02-12T13:19:31;27.92;;;12.63;;
36301;SDS011;22334;53.022;18.606;2023-02-12T13:25:00;29.20;;;12.10;;
36301;SDS011;22334;53.022;18.606;2023-02-12T13:27:40;29.20;;;11.88;;
36301;SDS011;22334;53.022;18.606;2023-02-12T13:33:00;27.98;;;12.57;;
36301;SDS011;22334;53.022;18.606;2023-02-12T13:36:00;28.17;;;13.07;;
36301;SDS011;22334;53.022;18.606;2023-02-12T13:38:39;28.70;;;13.00;;
36301;SDS011;22334;53.022;18.606;2023-02-12T13:41:14;38.13;;;16.33;;
36301;SDS011;22334;53.022;18.606;2023-02-12T13:43:58;30.17;;;14.13;;
36301;SDS011;22334;53.022;18.606;2023-02-12T13:49:50;36.58;;;18.17;;
36301;SDS011;22334;53.022;18.606;2023-02-12T13:52:23;39.38;;;16.27;;
36301;SDS011;22334;53.022;18.606;2023-02-12T14:03:32;35.92;;;14.27;;
36301;SDS011;22334;53.022;18.606;2023-02-12T14:06:19;33.45;;;15.15;;
36301;SDS011;22334;53.022;18.606;2023-02-12T14:09:09;33.95;;;15.07;;
36301;SDS011;22334;53.022;18.606;2023-02-12T14:11:55;31.02;;;13.50;;
36301;SDS011;22334;53.022;18.606;2023-02-12T14:14:33;31.77;;;13.98;;
36301;SDS011;22334;53.022;18.606;2023-02-12T14:22:56;42.00;;;15.80;;
36301;SDS011;22334;53.022;18.606;2023-02-12T14:25:45;37.30;;;16.48;;
36301;SDS011;22334;53.022;18.606;2023-02-12T14:31:19;33.67;;;15.60;;
36301;SDS011;22334;53.022;18.606;2023-02-12T14:33:51;31.58;;;14.65;;
36301;SDS011;22334;53.022;18.606;2023-02-12T14:39:45;38.35;;;15.27;;
36301;SDS011;22334;53.022;18.606;2023-02-12T14:42:40;32.85;;;16.10;;
36301;SDS011;22334;53.022;18.606;2023-02-12T14:51:25;49.08;;;20.05;;
36301;SDS011;22334;53.022;18.606;2023-02-12T14:54:13;39.47;;;18.58;;
36301;SDS011;22334;53.022;18.606;2023-02-12T14:57:01;38.78;;;17.85;;
36301;SDS011;22334;53.022;18.606;2023-02-12T14:59:30;46.45;;;18.80;;
36301;SDS011;22334;53.022;18.606;2023-02-12T15:01:57;36.53;;;17.80;;
36301;SDS011;22334;53.022;18.606;2023-02-12T15:04:26;40.65;;;17.98;;
36301;SDS011;22334;53.022;18.606;2023-02-12T15:06:57;42.28;;;17.75;;
36301;SDS011;22334;53.022;18.606;2023-02-12T15:09:29;44.20;;;18.25;;
36301;SDS011;22334;53.022;18.606;2023-02-12T15:12:36;33.88;;;16.10;;
36301;SDS011;22334;53.022;18.606;2023-02-12T15:17:55;37.00;;;17.83;;
36301;SDS011;22334;53.022;18.606;2023-02-12T15:20:38;56.08;;;26.08;;
36301;SDS011;22334;53.022;18.606;2023-02-12T15:23:47;52.03;;;21.48;;
36301;SDS011;22334;53.022;18.606;2023-02-12T15:26:54;35.42;;;20.05;;
36301;SDS011;22334;53.022;18.606;2023-02-12T15:32:01;34.95;;;16.00;;
36301;SDS011;22334;53.022;18.606;2023-02-12T15:34:29;34.05;;;16.90;;
36301;SDS011;22334;53.022;18.606;2023-02-12T15:36:56;43.60;;;17.85;;
36301;SDS011;22334;53.022;18.606;2023-02-12T15:39:23;35.03;;;17.02;;
36301;SDS011;22334;53.022;18.606;2023-02-12T15:41:52;42.38;;;20.35;;
36301;SDS011;22334;53.022;18.606;2023-02-12T15:56:32;40.17;;;17.40;;
36301;SDS011;22334;53.022;18.606;2023-02-12T15:59:03;36.63;;;17.23;;
36301;SDS011;22334;53.022;18.606;2023-02-12T16:01:41;45.83;;;22.15;;
36301;SDS011;22334;53.022;18.606;2023-02-12T16:04:20;46.35;;;20.48;;
36301;SDS011;22334;53.022;18.606;2023-02-12T16:06:46;41.40;;;17.42;;
36301;SDS011;22334;53.022;18.606;2023-02-12T16:09:25;43.03;;;19.20;;
36301;SDS011;22334;53.022;18.606;2023-02-12T16:12:06;43.63;;;21.10;;
36301;SDS011;22334;53.022;18.606;2023-02-12T16:14:46;45.50;;;21.10;;
36301;SDS011;22334;53.022;18.606;2023-02-12T16:17:46;52.42;;;23.35;;
36301;SDS011;22334;53.022;18.606;2023-02-12T16:20:23;40.28;;;20.55;;
36301;SDS011;22334;53.022;18.606;2023-02-12T16:22:51;45.30;;;21.30;;
36301;SDS011;22334;53.022;18.606;2023-02-12T16:25:20;42.95;;;19.90;;
36301;SDS011;22334;53.022;18.606;2023-02-12T16:30:43;44.83;;;19.38;;
36301;SDS011;22334;53.022;18.606;2023-02-12T16:33:34;50.90;;;22.58;;
36301;SDS011;22334;53.022;18.606;2023-02-12T16:38:59;57.03;;;26.63;;
36301;SDS011;22334;53.022;18.606;2023-02-12T16:41:31;54.97;;;24.83;;
36301;SDS011;22334;53.022;18.606;2023-02-12T16:44:46;58.50;;;25.23;;
36301;SDS011;22334;53.022;18.606;2023-02-12T16:50:44;54.70;;;25.23;;
36301;SDS011;22334;53.022;18.606;2023-02-12T17:00:06;50.53;;;21.52;;
36301;SDS011;22334;53.022;18.606;2023-02-12T17:05:55;55.05;;;22.45;;
36301;SDS011;22334;53.022;18.606;2023-02-12T17:08:26;43.05;;;18.30;;
36301;SDS011;22334;53.022;18.606;2023-02-12T17:14:31;63.13;;;24.08;;
36301;SDS011;22334;53.022;18.606;2023-02-12T17:30:56;50.00;;;20.50;;
36301;SDS011;22334;53.022;18.606;2023-02-12T17:40:19;49.67;;;22.67;;
36301;SDS011;22334;53.022;18.606;2023-02-12T17:43:59;73.55;;;32.75;;
36301;SDS011;22334;53.022;18.606;2023-02-12T17:47:32;58.22;;;29.60;;
36301;SDS011;22334;53.022;18.606;2023-02-12T17:54:43;45.50;;;19.75;;
36301;SDS011;22334;53.022;18.606;2023-02-12T17:58:07;40.90;;;15.63;;
36301;SDS011;22334;53.022;18.606;2023-02-12T18:04:23;46.60;;;19.75;;
36301;SDS011;22334;53.022;18.606;2023-02-12T18:07:24;37.38;;;15.80;;
36301;SDS011;22334;53.022;18.606;2023-02-12T18:15:55;50.05;;;20.27;;
36301;SDS011;22334;53.022;18.606;2023-02-12T18:26:53;64.53;;;27.95;;
36301;SDS011;22334;53.022;18.606;2023-02-12T18:32:12;45.67;;;21.45;;
36301;SDS011;22334;53.022;18.606;2023-02-12T18:34:58;42.97;;;18.00;;
36301;SDS011;22334;53.022;18.606;2023-02-12T18:37:24;63.35;;;28.55;;
36301;SDS011;22334;53.022;18.606;2023-02-12T18:40:07;54.30;;;23.65;;
36301;SDS011;22334;53.022;18.606;2023-02-12T18:42:32;50.47;;;18.00;;
36301;SDS011;22334;53.022;18.606;2023-02-12T18:45:00;50.67;;;22.85;;
36301;SDS011;22334;53.022;18.606;2023-02-12T18:47:25;61.55;;;23.13;;
36301;SDS011;22334;53.022;18.606;2023-02-12T18:49:51;50.30;;;22.50;;
36301;SDS011;22334;53.022;18.606;2023-02-12T18:52:16;50.05;;;25.02;;
36301;SDS011;22334;53.022;18.606;2023-02-12T18:54:43;44.05;;;20.88;;
36301;SDS011;22334;53.022;18.606;2023-02-12T18:57:09;50.63;;;22.55;;
36301;SDS011;22334;53.022;18.606;2023-02-12T18:59:34;41.42;;;20.55;;
36301;SDS011;22334;53.022;18.606;2023-02-12T19:02:04;36.70;;;19.05;;
36301;SDS011;22334;53.022;18.606;2023-02-12T19:04:35;36.58;;;17.40;;
36301;SDS011;22334;53.022;18.606;2023-02-12T19:07:01;73.78;;;37.53;;
36301;SDS011;22334;53.022;18.606;2023-02-12T19:09:27;56.47;;;30.65;;
36301;SDS011;22334;53.022;18.606;2023-02-12T19:11:53;49.15;;;22.30;;
36301;SDS011;22334;53.022;18.606;2023-02-12T19:14:20;52.78;;;25.88;;